Time;durP1;ratioP1;P1;durP2;ratioP2;P2;SDS_P1;SDS_P2;PMS_P1;PMS_P2;Temp;Humidity;BMP_temperature;BMP_pressure;BME280_temperature;BME280_humidity;BME280_pressure;Samples;Min_cycle;Max_cycle;Signal;HPM_P1;HPM_P2
2023/01/02 00:00:19;;;;;;;;;;;;;;;;;;1019946;29;19953;-79
2023/01/02 00:00:50;;;;;;;;;;;;;;;;;;1024656;29;19910;-79
2023/01/02 00:01:20;;;;;;;;;;;;;;;;;;1023639;29;19911;-79
2023/01/02 00:01:51;;;;;;;;;;;;;;;;;;1023587;29;20361;-79
2023/01/02 00:02:22;;;;;;;;;;;;;;;;;;1019877;29;19959;-78
2023/01/02 00:02:53;;;;;;;;;;;;;;;;;;1020445;29;20366;-78
2023/01/02 00:03:24;;;;;;;;;;;;;;;;;;1024568;29;19955;-79
2023/01/02 00:03:58;;;;;;;;;;;;;;;;;;1023979;28;20767;-80
2023/01/02 00:04:28;;;;;;;;;;;;;;;;;;1028012;28;19906;-80
2023/01/02 00:04:59;;;;;;;;;;;;;;;;;;1023415;29;19910;-79
2023/01/02 00:05:30;;;;;;;;;;;;;;;;;;1023991;29;19907;-78
2023/01/02 00:06:01;;;;;;;;;;;;;;;;;;1024610;29;19942;-79
2023/01/02 00:06:32;;;;;;;;;;;;;;;;;;1024100;28;19962;-79
2023/01/02 00:07:03;;;;;;;;;;;;;;;;;;1023379;29;19961;-78
2023/01/02 00:07:34;;;;;;;;;;;;;;;;;;1023903;29;19911;-79
2023/01/02 00:08:05;;;;;;;;;;;;;;;;;;1023471;29;19907;-78
2023/01/02 00:08:35;;;;;;;;;;;;;;;;;;1024636;29;19910;-79
2023/01/02 00:09:06;;;;;;;;;;;;;;;;;;1023688;29;19907;-79
2023/01/02 00:09:37;;;;;;;;;;;;;;;;;;1019667;29;19918;-79
2023/01/02 00:10:08;;;;;;;;;;;;;;;;;;1023560;29;19986;-79
2023/01/02 00:10:39;;;;;;;;;;;;;;;;;;1023736;29;19911;-80
2023/01/02 00:11:10;;;;;;;;;;;;;;;;;;1024394;28;19914;-79
2023/01/02 00:11:41;;;;;;;;;;;;;;;;;;1027682;28;19994;-79
2023/01/02 00:12:12;;;;;;;;;;;;;;;;;;1027713;28;19917;-79
2023/01/02 00:12:42;;;;;;;;;;;;;;;;;;1027589;28;20565;-79
2023/01/02 00:13:13;;;;;;;;;;;;;;;;;;1027707;28;19997;-77
2023/01/02 00:13:44;;;;;;;;;;;;;;;;;;1028369;28;19906;-77
2023/01/02 00:14:15;;;;;;;;;;;;;;;;;;1027609;28;19921;-78
2023/01/02 00:14:46;;;;;;;;;;;;;;;;;;1027850;28;20066;-78
2023/01/02 00:15:17;;;;;;;;;;;;;;;;;;1027385;28;20350;-78
2023/01/02 00:15:48;;;;;;;;;;;;;;;;;;1027569;28;19953;-78
2023/01/02 00:16:18;;;;;;;;;;;;;;;;;;1028589;28;19945;-78
2023/01/02 00:16:49;;;;;;;;;;;;;;;;;;1027758;28;19907;-77
2023/01/02 00:17:20;;;;;;;;;;;;;;;;;;1027488;28;20001;-76
2023/01/02 00:17:51;;;;;;;;;;;;;;;;;;1023232;29;19945;-79
2023/01/02 00:18:22;;;;;;;;;;;;;;;;;;1019677;29;20005;-77
2023/01/02 00:18:55;;;;;;;;;;;;;;;;;;1024429;29;20277;-79
2023/01/02 00:19:26;;;;;;;;;;;;;;;;;;1024270;28;19911;-77
2023/01/02 00:19:57;;;;;;;;;;;;;;;;;;1027373;28;19942;-77
2023/01/02 00:20:28;;;;;;;;;;;;;;;;;;1027429;28;20417;-79
2023/01/02 00:20:59;;;;;;;;;;;;;;;;;;1027288;28;20041;-79
2023/01/02 00:21:30;;;;;;;;;;;;;;;;;;1028631;28;19922;-79
2023/01/02 00:22:01;;;;;;;;;;;;;;;;;;1027819;28;20397;-79
2023/01/02 00:22:32;;;;;;;;;;;;;;;;;;1029095;28;19922;-78
2023/01/02 00:23:03;;;;;;;;;;;;;;;;;;1027798;28;19949;-77
2023/01/02 00:23:33;;;;;;;;;;;;;;;;;;1023547;29;19921;-77
2023/01/02 00:24:04;;;;;;;;;;;;;;;;;;1020026;29;20001;-79
2023/01/02 00:24:35;;;;;;;;;;;;;;;;;;1018075;29;19970;-77
2023/01/02 00:25:06;;;;;;;;;;;;;;;;;;1015600;29;19922;-78
2023/01/02 00:25:37;;;;;;;;;;;;;;;;;;1021710;29;20005;-78
2023/01/02 00:26:08;;;;;;;;;;;;;;;;;;1019353;29;19918;-78
2023/01/02 00:26:39;;;;;;;;;;;;;;;;;;1020654;29;20055;-77
2023/01/02 00:27:10;;;;;;;;;;;;;;;;;;1016224;29;19982;-77
2023/01/02 00:27:41;;;;;;;;;;;;;;;;;;1020133;29;19911;-77
2023/01/02 00:28:11;;;;;;;;;;;;;;;;;;1023398;29;19997;-78
2023/01/02 00:28:42;;;;;;;;;;;;;;;;;;1019548;29;19918;-78
2023/01/02 00:29:13;;;;;;;;;;;;;;;;;;1020237;29;19919;-77
2023/01/02 00:29:44;;;;;;;;;;;;;;;;;;1019830;29;19921;-77
2023/01/02 00:30:15;;;;;;;;;;;;;;;;;;1023696;28;20389;-77
2023/01/02 00:30:46;;;;;;;;;;;;;;;;;;1027627;28;19914;-77
2023/01/02 00:31:17;;;;;;;;;;;;;;;;;;1027279;28;19914;-78
2023/01/02 00:31:48;;;;;;;;;;;;;;;;;;1024548;28;19914;-77
2023/01/02 00:32:18;;;;;;;;;;;;;;;;;;1027194;28;20667;-78
2023/01/02 00:32:49;;;;;;;;;;;;;;;;;;1027038;28;19925;-79
2023/01/02 00:33:20;;;;;;;;;;;;;;;;;;1027390;28;19910;-77
2023/01/02 00:33:51;;;;;;;;;;;;;;;;;;1019482;29;19915;-79
2023/01/02 00:34:22;;;;;;;;;;;;;;;;;;1020724;29;19953;-78
2023/01/02 00:34:53;;;;;;;;;;;;;;;;;;1023600;29;19910;-79
2023/01/02 00:35:24;;;;;;;;;;;;;;;;;;1023635;29;19922;-79
2023/01/02 00:35:54;;;;;;;;;;;;;;;;;;1023532;29;20006;-79
2023/01/02 00:36:26;;;;;;;;;;;;;;;;;;1023448;28;19914;-80
2023/01/02 00:36:57;;;;;;;;;;;;;;;;;;1028472;28;20286;-80
2023/01/02 00:37:28;;;;;;;;;;;;;;;;;;1027697;28;20370;-79
2023/01/02 00:37:59;;;;;;;;;;;;;;;;;;1027401;28;19914;-79
2023/01/02 00:38:30;;;;;;;;;;;;;;;;;;1027785;28;20396;-79
2023/01/02 00:39:00;;;;;;;;;;;;;;;;;;1023215;29;19914;-79
2023/01/02 00:39:31;;;;;;;;;;;;;;;;;;1020546;29;19921;-78
2023/01/02 00:40:02;;;;;;;;;;;;;;;;;;1019149;29;20440;-80
2023/01/02 00:40:33;;;;;;;;;;;;;;;;;;1019659;29;19926;-79
2023/01/02 00:41:04;;;;;;;;;;;;;;;;;;1023216;28;20717;-78
2023/01/02 00:41:35;;;;;;;;;;;;;;;;;;1023542;29;19921;-79
2023/01/02 00:42:06;;;;;;;;;;;;;;;;;;1024258;29;20417;-79
2023/01/02 00:42:37;;;;;;;;;;;;;;;;;;1025589;28;19914;-79
2023/01/02 00:43:07;;;;;;;;;;;;;;;;;;1027558;28;19914;-79
2023/01/02 00:43:38;;;;;;;;;;;;;;;;;;1027411;28;20000;-79
2023/01/02 00:44:09;;;;;;;;;;;;;;;;;;1027293;28;19921;-79
2023/01/02 00:44:40;;;;;;;;;;;;;;;;;;1028579;28;19917;-79
2023/01/02 00:45:11;;;;;;;;;;;;;;;;;;1027751;28;20004;-79
2023/01/02 00:45:42;;;;;;;;;;;;;;;;;;1027482;28;19910;-79
2023/01/02 00:46:13;;;;;;;;;;;;;;;;;;1023361;29;19918;-78
2023/01/02 00:46:44;;;;;;;;;;;;;;;;;;1023542;29;19921;-78
2023/01/02 00:47:14;;;;;;;;;;;;;;;;;;1024463;29;19915;-79
2023/01/02 00:47:45;;;;;;;;;;;;;;;;;;1023739;28;20030;-78
2023/01/02 00:48:16;;;;;;;;;;;;;;;;;;1027470;28;19914;-79
2023/01/02 00:48:47;;;;;;;;;;;;;;;;;;1027728;28;19920;-79
2023/01/02 00:49:18;;;;;;;;;;;;;;;;;;1027161;28;20008;-78
2023/01/02 00:49:49;;;;;;;;;;;;;;;;;;1028182;28;19918;-79
2023/01/02 00:50:20;;;;;;;;;;;;;;;;;;1023452;28;19949;-78
2023/01/02 00:50:51;;;;;;;;;;;;;;;;;;1023614;29;19914;-78
2023/01/02 00:51:21;;;;;;;;;;;;;;;;;;1023040;28;19946;-79
2023/01/02 00:51:52;;;;;;;;;;;;;;;;;;1023587;29;19922;-79
2023/01/02 00:52:23;;;;;;;;;;;;;;;;;;1019787;29;19915;-80
2023/01/02 00:52:54;;;;;;;;;;;;;;;;;;1021006;28;19921;-79
2023/01/02 00:53:25;;;;;;;;;;;;;;;;;;1027365;28;19918;-79
2023/01/02 00:53:56;;;;;;;;;;;;;;;;;;1023662;28;19914;-80
2023/01/02 00:54:27;;;;;;;;;;;;;;;;;;1024195;28;19915;-79
2023/01/02 00:54:57;;;;;;;;;;;;;;;;;;1024047;29;20018;-79
2023/01/02 00:55:28;;;;;;;;;;;;;;;;;;1019667;29;19919;-79
2023/01/02 00:55:59;;;;;;;;;;;;;;;;;;1019077;29;19981;-79
2023/01/02 00:56:30;;;;;;;;;;;;;;;;;;1019400;29;19922;-79
2023/01/02 00:57:01;;;;;;;;;;;;;;;;;;1019575;29;20413;-79
2023/01/02 00:57:32;;;;;;;;;;;;;;;;;;1024189;28;19914;-79
2023/01/02 00:58:03;;;;;;;;;;;;;;;;;;1027678;28;20373;-78
2023/01/02 00:58:34;;;;;;;;;;;;;;;;;;1027477;28;19925;-79
2023/01/02 00:59:04;;;;;;;;;;;;;;;;;;1023237;28;20660;-79
2023/01/02 00:59:35;;;;;;;;;;;;;;;;;;1023320;29;19914;-79
2023/01/02 01:00:06;;;;;;;;;;;;;;;;;;1023285;28;20378;-79
2023/01/02 01:00:37;;;;;;;;;;;;;;;;;;1019720;29;19915;-77
2023/01/02 01:01:08;;;;;;;;;;;;;;;;;;1015575;29;19915;-76
2023/01/02 01:01:39;;;;;;;;;;;;;;;;;;1019602;29;19915;-79
2023/01/02 01:02:10;;;;;;;;;;;;;;;;;;1023276;29;20291;-77
2023/01/02 01:02:41;;;;;;;;;;;;;;;;;;1023443;29;19918;-77
2023/01/02 01:03:11;;;;;;;;;;;;;;;;;;1023903;29;19993;-75
2023/01/02 01:03:42;;;;;;;;;;;;;;;;;;1023670;28;19914;-77
2023/01/02 01:04:14;;;;;;;;;;;;;;;;;;1023207;29;20001;-77
2023/01/02 01:04:44;;;;;;;;;;;;;;;;;;1023020;29;19966;-77
2023/01/02 01:05:15;;;;;;;;;;;;;;;;;;1023114;29;19914;-77
2023/01/02 01:05:46;;;;;;;;;;;;;;;;;;1024237;29;19918;-77
2023/01/02 01:06:17;;;;;;;;;;;;;;;;;;1019895;28;20010;-78
2023/01/02 01:06:48;;;;;;;;;;;;;;;;;;1023303;29;19917;-76
2023/01/02 01:07:19;;;;;;;;;;;;;;;;;;1023390;29;20009;-77
2023/01/02 01:07:50;;;;;;;;;;;;;;;;;;1023350;29;19986;-77
2023/01/02 01:08:20;;;;;;;;;;;;;;;;;;1027722;28;19969;-77
2023/01/02 01:08:51;;;;;;;;;;;;;;;;;;1027277;28;19910;-76
2023/01/02 01:09:22;;;;;;;;;;;;;;;;;;1023398;28;20358;-77
2023/01/02 01:09:53;;;;;;;;;;;;;;;;;;1027232;28;20008;-78
2023/01/02 01:10:24;;;;;;;;;;;;;;;;;;1027148;28;20322;-77
2023/01/02 01:10:55;;;;;;;;;;;;;;;;;;1028169;28;19910;-78
2023/01/02 01:11:26;;;;;;;;;;;;;;;;;;1027209;28;20374;-78
2023/01/02 01:11:56;;;;;;;;;;;;;;;;;;1027105;28;19921;-79
2023/01/02 01:12:27;;;;;;;;;;;;;;;;;;1027413;28;20464;-77
2023/01/02 01:12:58;;;;;;;;;;;;;;;;;;1027445;28;19913;-77
2023/01/02 01:13:29;;;;;;;;;;;;;;;;;;1028311;28;20005;-78
2023/01/02 01:14:00;;;;;;;;;;;;;;;;;;1027131;28;19957;-77
2023/01/02 01:14:31;;;;;;;;;;;;;;;;;;1027356;28;19964;-77
2023/01/02 01:15:02;;;;;;;;;;;;;;;;;;1027068;28;19969;-77
2023/01/02 01:15:32;;;;;;;;;;;;;;;;;;1027337;28;19933;-77
2023/01/02 01:16:03;;;;;;;;;;;;;;;;;;1024014;29;20001;-77
2023/01/02 01:16:34;;;;;;;;;;;;;;;;;;1023322;29;19914;-77
2023/01/02 01:17:05;;;;;;;;;;;;;;;;;;1023081;28;19914;-77
2023/01/02 01:17:36;;;;;;;;;;;;;;;;;;1023186;28;19915;-79
2023/01/02 01:18:07;;;;;;;;;;;;;;;;;;1023524;29;19958;-77
2023/01/02 01:18:38;;;;;;;;;;;;;;;;;;1024755;28;19911;-77
2023/01/02 01:19:09;;;;;;;;;;;;;;;;;;1027746;28;19997;-77
2023/01/02 01:19:39;;;;;;;;;;;;;;;;;;1023287;29;19922;-77
2023/01/02 01:20:10;;;;;;;;;;;;;;;;;;1023368;29;20338;-77
2023/01/02 01:20:41;;;;;;;;;;;;;;;;;;1026602;28;19918;-77
2023/01/02 01:21:12;;;;;;;;;;;;;;;;;;1023454;29;20235;-77
2023/01/02 01:21:44;;;;;;;;;;;;;;;;;;1023120;29;19921;-77
2023/01/02 01:22:15;;;;;;;;;;;;;;;;;;1023362;29;20029;-77
2023/01/02 01:22:45;;;;;;;;;;;;;;;;;;1023431;29;19914;-77
2023/01/02 01:23:16;;;;;;;;;;;;;;;;;;1023074;29;20425;-77
2023/01/02 01:23:47;;;;;;;;;;;;;;;;;;1021287;29;19915;-77
2023/01/02 01:24:18;;;;;;;;;;;;;;;;;;1022943;29;20421;-76
2023/01/02 01:24:49;;;;;;;;;;;;;;;;;;1023381;29;20008;-79
2023/01/02 01:25:20;;;;;;;;;;;;;;;;;;1023222;29;20649;-79
2023/01/02 01:25:51;;;;;;;;;;;;;;;;;;1027277;28;20017;-80
2023/01/02 01:26:22;;;;;;;;;;;;;;;;;;1028258;28;19918;-76
2023/01/02 01:26:52;;;;;;;;;;;;;;;;;;1027659;28;19911;-77
2023/01/02 01:27:23;;;;;;;;;;;;;;;;;;1027358;28;20706;-77
2023/01/02 01:27:54;;;;;;;;;;;;;;;;;;1023228;29;19910;-77
2023/01/02 01:28:25;;;;;;;;;;;;;;;;;;1023325;29;20564;-77
2023/01/02 01:28:56;;;;;;;;;;;;;;;;;;1024149;29;19914;-77
2023/01/02 01:29:27;;;;;;;;;;;;;;;;;;1023627;28;19915;-76
2023/01/02 01:29:58;;;;;;;;;;;;;;;;;;1027100;28;20356;-77
2023/01/02 01:30:28;;;;;;;;;;;;;;;;;;1027227;28;19917;-77
2023/01/02 01:30:59;;;;;;;;;;;;;;;;;;1027208;28;20353;-76
2023/01/02 01:31:30;;;;;;;;;;;;;;;;;;1028265;28;19910;-78
2023/01/02 01:32:01;;;;;;;;;;;;;;;;;;1026706;28;19914;-78
2023/01/02 01:32:32;;;;;;;;;;;;;;;;;;1029105;28;20001;-79
2023/01/02 01:33:03;;;;;;;;;;;;;;;;;;1027182;28;19910;-79
2023/01/02 01:33:34;;;;;;;;;;;;;;;;;;1027560;28;20589;-78
2023/01/02 01:34:05;;;;;;;;;;;;;;;;;;1028059;28;19914;-79
2023/01/02 01:34:35;;;;;;;;;;;;;;;;;;1027498;28;20004;-79
2023/01/02 01:35:06;;;;;;;;;;;;;;;;;;1022970;29;19922;-79
2023/01/02 01:35:37;;;;;;;;;;;;;;;;;;1023150;29;19921;-80
2023/01/02 01:36:08;;;;;;;;;;;;;;;;;;1019262;29;19921;-79
2023/01/02 01:36:39;;;;;;;;;;;;;;;;;;1020452;29;19937;-79
2023/01/02 01:37:10;;;;;;;;;;;;;;;;;;1023445;29;19918;-79
2023/01/02 01:37:41;;;;;;;;;;;;;;;;;;1019580;29;19991;-80
2023/01/02 01:38:11;;;;;;;;;;;;;;;;;;1023325;29;19915;-76
2023/01/02 01:38:42;;;;;;;;;;;;;;;;;;1023409;29;19950;-78
2023/01/02 01:39:13;;;;;;;;;;;;;;;;;;1024397;28;19915;-77
2023/01/02 01:39:44;;;;;;;;;;;;;;;;;;1022985;29;20017;-78
2023/01/02 01:40:15;;;;;;;;;;;;;;;;;;1023418;29;19915;-78
2023/01/02 01:40:46;;;;;;;;;;;;;;;;;;1023083;28;19923;-79
2023/01/02 01:41:17;;;;;;;;;;;;;;;;;;1023418;28;19937;-79
2023/01/02 01:41:47;;;;;;;;;;;;;;;;;;1028308;28;19914;-79
2023/01/02 01:42:18;;;;;;;;;;;;;;;;;;1027117;28;20425;-78
2023/01/02 01:42:49;;;;;;;;;;;;;;;;;;1023523;28;19919;-78
2023/01/02 01:43:20;;;;;;;;;;;;;;;;;;1023258;29;20058;-78
2023/01/02 01:43:51;;;;;;;;;;;;;;;;;;1023103;29;20391;-78
2023/01/02 01:44:22;;;;;;;;;;;;;;;;;;1023950;28;19915;-79
2023/01/02 01:44:53;;;;;;;;;;;;;;;;;;1023440;28;19919;-78
2023/01/02 01:45:24;;;;;;;;;;;;;;;;;;1027406;28;20705;-78
2023/01/02 01:45:54;;;;;;;;;;;;;;;;;;1027338;28;19996;-78
2023/01/02 01:46:25;;;;;;;;;;;;;;;;;;1023313;29;19938;-79
2023/01/02 01:46:56;;;;;;;;;;;;;;;;;;1023982;29;20013;-79
2023/01/02 01:47:27;;;;;;;;;;;;;;;;;;1023335;29;19910;-78
2023/01/02 01:47:58;;;;;;;;;;;;;;;;;;1023392;28;19915;-78
2023/01/02 01:48:29;;;;;;;;;;;;;;;;;;1027417;28;19980;-78
2023/01/02 01:49:00;;;;;;;;;;;;;;;;;;1023788;29;19922;-78
2023/01/02 01:49:31;;;;;;;;;;;;;;;;;;1020947;29;19919;-78
2023/01/02 01:50:02;;;;;;;;;;;;;;;;;;1024012;29;19957;-79
2023/01/02 01:50:33;;;;;;;;;;;;;;;;;;1024360;28;19914;-77
2023/01/02 01:51:03;;;;;;;;;;;;;;;;;;1028055;28;19938;-78
2023/01/02 01:51:34;;;;;;;;;;;;;;;;;;1023962;29;20362;-78
2023/01/02 01:52:05;;;;;;;;;;;;;;;;;;1020717;29;19942;-78
2023/01/02 01:52:36;;;;;;;;;;;;;;;;;;1020048;29;20393;-78
2023/01/02 01:53:07;;;;;;;;;;;;;;;;;;1020159;29;19915;-78
2023/01/02 01:53:38;;;;;;;;;;;;;;;;;;1024130;28;19922;-78
2023/01/02 01:54:09;;;;;;;;;;;;;;;;;;1023968;28;19967;-78
2023/01/02 01:54:40;;;;;;;;;;;;;;;;;;1024799;28;19945;-78
2023/01/02 01:55:11;;;;;;;;;;;;;;;;;;1023999;29;19921;-80
2023/01/02 01:55:42;;;;;;;;;;;;;;;;;;1024084;29;19911;-79
2023/01/02 01:56:13;;;;;;;;;;;;;;;;;;1024064;28;19909;-79
2023/01/02 01:56:43;;;;;;;;;;;;;;;;;;1024183;29;19917;-79
2023/01/02 01:57:14;;;;;;;;;;;;;;;;;;1024855;29;19917;-79
2023/01/02 01:57:45;;;;;;;;;;;;;;;;;;1024066;28;20289;-78
2023/01/02 01:58:16;;;;;;;;;;;;;;;;;;1024449;28;19942;-79
2023/01/02 01:58:47;;;;;;;;;;;;;;;;;;1028250;28;20373;-78
2023/01/02 01:59:18;;;;;;;;;;;;;;;;;;1027852;28;19907;-78
2023/01/02 01:59:49;;;;;;;;;;;;;;;;;;1028711;28;19910;-79
2023/01/02 02:00:19;;;;;;;;;;;;;;;;;;1027967;28;19913;-79
2023/01/02 02:00:50;;;;;;;;;;;;;;;;;;1028279;28;19914;-78
2023/01/02 02:01:21;;;;;;;;;;;;;;;;;;1027905;28;20001;-78
2023/01/02 02:01:52;;;;;;;;;;;;;;;;;;1027896;28;19914;-79
2023/01/02 02:02:23;;;;;;;;;;;;;;;;;;1028457;28;20491;-79
2023/01/02 02:02:54;;;;;;;;;;;;;;;;;;1028876;28;19914;-79
2023/01/02 02:03:25;;;;;;;;;;;;;;;;;;1024222;28;20353;-79
2023/01/02 02:03:56;;;;;;;;;;;;;;;;;;1027815;28;20020;-78
2023/01/02 02:04:26;;;;;;;;;;;;;;;;;;1024069;29;20338;-78
2023/01/02 02:04:57;;;;;;;;;;;;;;;;;;1024012;29;19915;-80
2023/01/02 02:05:28;;;;;;;;;;;;;;;;;;1024571;28;19914;-79
2023/01/02 02:05:59;;;;;;;;;;;;;;;;;;1023771;29;19978;-78
2023/01/02 02:06:30;;;;;;;;;;;;;;;;;;1024265;28;19939;-78
2023/01/02 02:07:01;;;;;;;;;;;;;;;;;;1027710;28;20362;-79
2023/01/02 02:07:32;;;;;;;;;;;;;;;;;;1028230;28;19911;-79
2023/01/02 02:08:02;;;;;;;;;;;;;;;;;;1028368;28;20735;-79
2023/01/02 02:08:33;;;;;;;;;;;;;;;;;;1028135;28;19953;-79
2023/01/02 02:09:04;;;;;;;;;;;;;;;;;;1027571;28;20567;-78
2023/01/02 02:09:35;;;;;;;;;;;;;;;;;;1027821;28;20005;-80
2023/01/02 02:10:06;;;;;;;;;;;;;;;;;;1024091;29;19943;-79
2023/01/02 02:10:37;;;;;;;;;;;;;;;;;;1024954;29;19914;-80
2023/01/02 02:11:08;;;;;;;;;;;;;;;;;;1023983;29;19956;-79
2023/01/02 02:11:39;;;;;;;;;;;;;;;;;;1023117;28;20740;-79
2023/01/02 02:12:09;;;;;;;;;;;;;;;;;;1023812;29;19961;-78
2023/01/02 02:12:40;;;;;;;;;;;;;;;;;;1023922;28;20270;-78
2023/01/02 02:13:11;;;;;;;;;;;;;;;;;;1028823;28;19914;-78
2023/01/02 02:13:42;;;;;;;;;;;;;;;;;;1023564;29;19965;-78
2023/01/02 02:14:13;;;;;;;;;;;;;;;;;;1024013;29;19918;-78
2023/01/02 02:14:44;;;;;;;;;;;;;;;;;;1023909;29;19959;-78
2023/01/02 02:15:15;;;;;;;;;;;;;;;;;;1024030;29;20762;-78
2023/01/02 02:15:45;;;;;;;;;;;;;;;;;;1024611;29;19917;-80
2023/01/02 02:16:16;;;;;;;;;;;;;;;;;;1023583;29;20384;-79
2023/01/02 02:16:47;;;;;;;;;;;;;;;;;;1023852;29;20678;-78
2023/01/02 02:17:18;;;;;;;;;;;;;;;;;;1023761;29;20013;-78
2023/01/02 02:17:49;;;;;;;;;;;;;;;;;;1019961;29;20263;-79
2023/01/02 02:18:20;;;;;;;;;;;;;;;;;;1020902;29;19911;-78
2023/01/02 02:18:51;;;;;;;;;;;;;;;;;;1022223;29;19970;-78
2023/01/02 02:19:22;;;;;;;;;;;;;;;;;;1024142;28;19914;-79
2023/01/02 02:19:52;;;;;;;;;;;;;;;;;;1023773;29;19910;-78
2023/01/02 02:20:23;;;;;;;;;;;;;;;;;;1022651;29;19941;-78
2023/01/02 02:20:54;;;;;;;;;;;;;;;;;;1020954;29;19919;-78
2023/01/02 02:21:25;;;;;;;;;;;;;;;;;;1022477;28;19918;-78
2023/01/02 02:21:56;;;;;;;;;;;;;;;;;;1028226;28;20899;-79
2023/01/02 02:22:27;;;;;;;;;;;;;;;;;;1024284;28;19922;-79
2023/01/02 02:22:58;;;;;;;;;;;;;;;;;;1024212;29;19950;-78
2023/01/02 02:23:28;;;;;;;;;;;;;;;;;;1028208;28;19917;-79
2023/01/02 02:23:59;;;;;;;;;;;;;;;;;;1028073;28;20012;-78
2023/01/02 02:24:30;;;;;;;;;;;;;;;;;;1028162;28;20492;-78
2023/01/02 02:25:01;;;;;;;;;;;;;;;;;;1028066;28;19918;-78
2023/01/02 02:25:32;;;;;;;;;;;;;;;;;;1023692;29;20370;-78
2023/01/02 02:26:03;;;;;;;;;;;;;;;;;;1024419;29;20045;-78
2023/01/02 02:26:34;;;;;;;;;;;;;;;;;;1023995;29;20687;-80
2023/01/02 02:27:04;;;;;;;;;;;;;;;;;;1023594;28;19910;-78
2023/01/02 02:27:35;;;;;;;;;;;;;;;;;;1027771;28;20407;-78
2023/01/02 02:28:06;;;;;;;;;;;;;;;;;;1023705;29;19914;-77
2023/01/02 02:28:37;;;;;;;;;;;;;;;;;;1020614;29;19922;-78
2023/01/02 02:29:08;;;;;;;;;;;;;;;;;;1023764;29;19917;-78
2023/01/02 02:29:39;;;;;;;;;;;;;;;;;;1023889;29;20472;-77
2023/01/02 02:30:09;;;;;;;;;;;;;;;;;;1024122;28;19911;-78
2023/01/02 02:30:40;;;;;;;;;;;;;;;;;;1028177;28;20366;-78
2023/01/02 02:31:11;;;;;;;;;;;;;;;;;;1028450;28;19945;-78
2023/01/02 02:31:42;;;;;;;;;;;;;;;;;;1028280;28;19915;-78
2023/01/02 02:32:13;;;;;;;;;;;;;;;;;;1027606;28;20008;-78
2023/01/02 02:32:44;;;;;;;;;;;;;;;;;;1030971;28;19917;-77
2023/01/02 02:33:16;;;;;;;;;;;;;;;;;;1031992;28;19920;-77
2023/01/02 02:33:47;;;;;;;;;;;;;;;;;;1033203;28;19913;-77
2023/01/02 02:34:18;;;;;;;;;;;;;;;;;;1028271;28;19918;-78
2023/01/02 02:34:49;;;;;;;;;;;;;;;;;;1028385;28;19914;-78
2023/01/02 02:35:20;;;;;;;;;;;;;;;;;;1023648;29;20005;-77
2023/01/02 02:35:51;;;;;;;;;;;;;;;;;;1023949;29;20326;-77
2023/01/02 02:36:22;;;;;;;;;;;;;;;;;;1024581;29;19918;-77
2023/01/02 02:36:52;;;;;;;;;;;;;;;;;;1024044;28;20398;-77
2023/01/02 02:37:23;;;;;;;;;;;;;;;;;;1023730;29;19910;-78
2023/01/02 02:37:54;;;;;;;;;;;;;;;;;;1023751;29;20305;-77
2023/01/02 02:38:25;;;;;;;;;;;;;;;;;;1023697;29;19924;-77
2023/01/02 02:38:57;;;;;;;;;;;;;;;;;;1024530;29;19921;-77
2023/01/02 02:39:28;;;;;;;;;;;;;;;;;;1019783;29;19922;-76
2023/01/02 02:39:59;;;;;;;;;;;;;;;;;;1019683;29;19915;-77
2023/01/02 02:40:30;;;;;;;;;;;;;;;;;;1020183;29;19918;-77
2023/01/02 02:41:00;;;;;;;;;;;;;;;;;;1020915;29;20289;-77
2023/01/02 02:41:31;;;;;;;;;;;;;;;;;;1020296;29;19953;-77
2023/01/02 02:42:02;;;;;;;;;;;;;;;;;;1019734;29;20385;-77
2023/01/02 02:42:33;;;;;;;;;;;;;;;;;;1021254;29;20003;-77
2023/01/02 02:43:04;;;;;;;;;;;;;;;;;;1023783;29;20338;-77
2023/01/02 02:43:35;;;;;;;;;;;;;;;;;;1022154;29;19950;-76
2023/01/02 02:44:06;;;;;;;;;;;;;;;;;;1026423;28;20647;-77
2023/01/02 02:44:36;;;;;;;;;;;;;;;;;;1023778;29;19961;-78
2023/01/02 02:45:07;;;;;;;;;;;;;;;;;;1024134;28;19907;-77
2023/01/02 02:45:38;;;;;;;;;;;;;;;;;;1023799;29;20381;-77
2023/01/02 02:46:09;;;;;;;;;;;;;;;;;;1023851;29;19911;-77
2023/01/02 02:46:40;;;;;;;;;;;;;;;;;;1024612;29;20262;-77
2023/01/02 02:47:11;;;;;;;;;;;;;;;;;;1023811;29;19911;-77
2023/01/02 02:47:42;;;;;;;;;;;;;;;;;;1023332;29;20021;-77
2023/01/02 02:48:12;;;;;;;;;;;;;;;;;;1023782;29;19961;-77
2023/01/02 02:48:43;;;;;;;;;;;;;;;;;;1024058;28;20509;-77
2023/01/02 02:49:14;;;;;;;;;;;;;;;;;;1027885;28;19906;-77
2023/01/02 02:49:45;;;;;;;;;;;;;;;;;;1024653;28;20310;-77
2023/01/02 02:50:16;;;;;;;;;;;;;;;;;;1023889;29;19913;-79
2023/01/02 02:50:47;;;;;;;;;;;;;;;;;;1023683;29;19910;-79
2023/01/02 02:51:18;;;;;;;;;;;;;;;;;;1020345;29;19910;-79
2023/01/02 02:51:49;;;;;;;;;;;;;;;;;;1020647;29;19915;-78
2023/01/02 02:52:20;;;;;;;;;;;;;;;;;;1022692;28;19911;-79
2023/01/02 02:52:51;;;;;;;;;;;;;;;;;;1027858;28;19925;-78
2023/01/02 02:53:22;;;;;;;;;;;;;;;;;;1023587;29;19906;-78
2023/01/02 02:53:53;;;;;;;;;;;;;;;;;;1023844;29;19917;-78
2023/01/02 02:54:23;;;;;;;;;;;;;;;;;;1024579;29;19918;-79
2023/01/02 02:54:54;;;;;;;;;;;;;;;;;;1023903;29;20352;-78
2023/01/02 02:55:25;;;;;;;;;;;;;;;;;;1023635;29;19917;-78
2023/01/02 02:55:56;;;;;;;;;;;;;;;;;;1023622;29;20595;-80
2023/01/02 02:56:27;;;;;;;;;;;;;;;;;;1020133;29;20046;-78
2023/01/02 02:56:58;;;;;;;;;;;;;;;;;;1024700;29;20502;-78
2023/01/02 02:57:29;;;;;;;;;;;;;;;;;;1019775;29;20014;-79
2023/01/02 02:58:00;;;;;;;;;;;;;;;;;;1019677;29;19922;-78
2023/01/02 02:58:31;;;;;;;;;;;;;;;;;;1019683;29;19922;-78
2023/01/02 02:59:02;;;;;;;;;;;;;;;;;;1019610;29;19987;-78
2023/01/02 02:59:33;;;;;;;;;;;;;;;;;;1018861;29;19918;-79
2023/01/02 03:00:04;;;;;;;;;;;;;;;;;;1015662;29;19958;-78
2023/01/02 03:00:35;;;;;;;;;;;;;;;;;;1015920;29;20656;-78
2023/01/02 03:01:06;;;;;;;;;;;;;;;;;;1015933;29;19911;-78
2023/01/02 03:01:37;;;;;;;;;;;;;;;;;;1019818;29;20425;-79
2023/01/02 03:02:07;;;;;;;;;;;;;;;;;;1024765;29;20402;-78
2023/01/02 03:02:38;;;;;;;;;;;;;;;;;;1024056;29;19950;-76
2023/01/02 03:03:09;;;;;;;;;;;;;;;;;;1023988;29;19911;-79
2023/01/02 03:03:40;;;;;;;;;;;;;;;;;;1023952;29;20472;-77
2023/01/02 03:04:11;;;;;;;;;;;;;;;;;;1019728;29;19938;-77
2023/01/02 03:04:42;;;;;;;;;;;;;;;;;;1020087;29;20516;-76
2023/01/02 03:05:13;;;;;;;;;;;;;;;;;;1019751;29;19907;-76
2023/01/02 03:05:43;;;;;;;;;;;;;;;;;;1019706;29;20445;-78
2023/01/02 03:06:14;;;;;;;;;;;;;;;;;;1019624;29;19974;-78
2023/01/02 03:06:45;;;;;;;;;;;;;;;;;;1019861;29;19911;-77
2023/01/02 03:07:16;;;;;;;;;;;;;;;;;;1020334;29;20527;-78
2023/01/02 03:07:47;;;;;;;;;;;;;;;;;;1019765;29;19928;-77
2023/01/02 03:08:18;;;;;;;;;;;;;;;;;;1019938;29;19907;-76
2023/01/02 03:08:49;;;;;;;;;;;;;;;;;;1019767;29;19911;-76
2023/01/02 03:09:20;;;;;;;;;;;;;;;;;;1020021;29;20033;-78
2023/01/02 03:09:50;;;;;;;;;;;;;;;;;;1024064;29;19998;-79
2023/01/02 03:10:21;;;;;;;;;;;;;;;;;;1023625;29;19910;-76
2023/01/02 03:10:52;;;;;;;;;;;;;;;;;;1023638;29;19910;-78
2023/01/02 03:11:23;;;;;;;;;;;;;;;;;;1023487;29;20722;-78
2023/01/02 03:11:54;;;;;;;;;;;;;;;;;;1019740;29;20322;-78
2023/01/02 03:12:25;;;;;;;;;;;;;;;;;;1019861;29;19918;-77
2023/01/02 03:12:56;;;;;;;;;;;;;;;;;;1019898;29;20635;-78
2023/01/02 03:13:26;;;;;;;;;;;;;;;;;;1020090;29;19993;-79
2023/01/02 03:13:57;;;;;;;;;;;;;;;;;;1023457;29;19910;-79
2023/01/02 03:14:28;;;;;;;;;;;;;;;;;;1020076;29;19926;-78
2023/01/02 03:14:59;;;;;;;;;;;;;;;;;;1019896;29;20374;-79
2023/01/02 03:15:30;;;;;;;;;;;;;;;;;;1020179;29;19922;-78
2023/01/02 03:16:01;;;;;;;;;;;;;;;;;;1019531;29;20520;-79
2023/01/02 03:16:32;;;;;;;;;;;;;;;;;;1020301;29;19917;-78
2023/01/02 03:17:03;;;;;;;;;;;;;;;;;;1019395;29;19918;-78
2023/01/02 03:17:34;;;;;;;;;;;;;;;;;;1016306;29;19912;-78
2023/01/02 03:18:05;;;;;;;;;;;;;;;;;;1020489;29;20326;-79
2023/01/02 03:18:35;;;;;;;;;;;;;;;;;;1019834;29;20366;-78
2023/01/02 03:19:06;;;;;;;;;;;;;;;;;;1019729;29;19937;-78
2023/01/02 03:19:37;;;;;;;;;;;;;;;;;;1019257;29;19919;-79
2023/01/02 03:20:08;;;;;;;;;;;;;;;;;;1019765;29;19966;-78
2023/01/02 03:20:39;;;;;;;;;;;;;;;;;;1019361;29;20413;-78
2023/01/02 03:21:10;;;;;;;;;;;;;;;;;;1019084;29;19967;-79
2023/01/02 03:21:41;;;;;;;;;;;;;;;;;;1019257;29;19929;-78
2023/01/02 03:22:12;;;;;;;;;;;;;;;;;;1019927;29;19915;-77
2023/01/02 03:22:42;;;;;;;;;;;;;;;;;;1019606;29;19911;-78
2023/01/02 03:23:13;;;;;;;;;;;;;;;;;;1020539;29;20298;-78
2023/01/02 03:23:44;;;;;;;;;;;;;;;;;;1019358;29;19966;-80
2023/01/02 03:24:15;;;;;;;;;;;;;;;;;;1019896;29;20341;-78
2023/01/02 03:24:46;;;;;;;;;;;;;;;;;;1023372;29;19959;-79
2023/01/02 03:25:17;;;;;;;;;;;;;;;;;;1023384;29;19938;-79
2023/01/02 03:25:48;;;;;;;;;;;;;;;;;;1020785;29;19918;-79
2023/01/02 03:26:18;;;;;;;;;;;;;;;;;;1019648;29;19915;-78
2023/01/02 03:26:49;;;;;;;;;;;;;;;;;;1019248;29;19915;-78
2023/01/02 03:27:20;;;;;;;;;;;;;;;;;;1015668;29;19918;-79
2023/01/02 03:27:51;;;;;;;;;;;;;;;;;;1015948;29;20362;-78
2023/01/02 03:28:22;;;;;;;;;;;;;;;;;;1024284;29;20001;-78
2023/01/02 03:28:53;;;;;;;;;;;;;;;;;;1019380;29;19915;-77
2023/01/02 03:29:24;;;;;;;;;;;;;;;;;;1023559;29;20009;-79
2023/01/02 03:29:55;;;;;;;;;;;;;;;;;;1023641;29;19914;-78
2023/01/02 03:30:25;;;;;;;;;;;;;;;;;;1023679;28;20405;-77
2023/01/02 03:30:56;;;;;;;;;;;;;;;;;;1016687;29;19953;-77